Terminal Aerodrome Forecast
Issued by NWS Paducah, KY

Home | Current Version | Previous Version | Graphics & Text | Print | Product List | Glossary On
Versions: 1 2 3 4 5 6 7 8 9 10 11 12 13 14
000
FTUS43 KPAH 191700
TAFPAH
TAF
KPAH 191720Z 1918/2018 VRB03KT P6SM FEW035 SCT150
     FM200000 00000KT P6SM BKN150
      TEMPO 2008/2011 5SM BR BCFG
     FM201400 24007KT P6SM SCT050=

USA.gov is the U.S. government's official web portal to all federal, state and local government web resources and services.